createdAt,value
2022-09-28T00:00:04.462Z,7.22
2022-09-28T00:15:00.290Z,7.11
2022-09-28T00:30:02.554Z,6.94
2022-09-28T00:45:01.780Z,6.94
2022-09-28T01:00:03.117Z,6.83
2022-09-28T01:15:04.831Z,6.78
2022-09-28T01:30:05.119Z,6.78
2022-09-28T01:45:03.374Z,6.89
2022-09-28T02:00:04.829Z,6.94
2022-09-28T02:15:01.726Z,6.89
2022-09-28T02:30:06.769Z,6.78
2022-09-28T02:45:00.732Z,6.56
2022-09-28T03:00:07.590Z,6.44
2022-09-28T03:15:05.041Z,6.33
2022-09-28T03:30:03.526Z,6.33
2022-09-28T03:45:00.871Z,6.44
2022-09-28T04:00:03.158Z,6.5
2022-09-28T04:15:04.001Z,6.56
2022-09-28T04:30:05.343Z,6.61
2022-09-28T04:45:05.299Z,6.72
2022-09-28T05:00:03.477Z,6.83
2022-09-28T05:15:00.040Z,7
2022-09-28T05:30:03.600Z,7.11
2022-09-28T05:45:04.870Z,7.28
2022-09-28T06:00:03.453Z,7.33
2022-09-28T06:15:00.571Z,7.5
2022-09-28T06:30:01.682Z,7.67
2022-09-28T06:45:04.881Z,7.94
2022-09-28T07:00:00.752Z,8.06
2022-09-28T07:15:02.568Z,8.44
2022-09-28T07:30:15.967Z,8.89
2022-09-28T07:45:01.796Z,9.67
2022-09-28T08:00:04.784Z,10.67
2022-09-28T08:15:01.128Z,11.61
2022-09-28T08:30:00.970Z,11.78
2022-09-28T08:45:05.053Z,11.56
2022-09-28T09:00:03.109Z,11.72
2022-09-28T09:15:02.965Z,11.89
2022-09-28T09:30:07.182Z,12.5
2022-09-28T09:45:01.028Z,12.94
2022-09-28T10:00:03.348Z,13.06
2022-09-28T10:15:02.130Z,13.28
2022-09-28T10:30:00.642Z,13.78
2022-09-28T10:45:02.031Z,14.06
2022-09-28T11:00:01.118Z,14.06
2022-09-28T11:15:03.089Z,13.89
2022-09-28T11:30:02.124Z,13.44
2022-09-28T11:45:01.462Z,13.44
2022-09-28T12:00:02.306Z,13.17
2022-09-28T12:15:00.288Z,13.28
2022-09-28T12:30:05.133Z,13.11
2022-09-28T12:45:03.357Z,13.11
2022-09-28T13:00:02.318Z,13.22
2022-09-28T13:15:03.743Z,13.33
2022-09-28T13:30:04.346Z,13.11
2022-09-28T13:45:03.877Z,12.89
2022-09-28T14:00:00.812Z,12.61
2022-09-28T14:15:03.950Z,12.33
2022-09-28T14:30:04.679Z,12.28
2022-09-28T14:45:05.300Z,12
2022-09-28T15:00:03.089Z,11.78
2022-09-28T15:15:03.149Z,12.11
2022-09-28T15:30:00.212Z,12.17
2022-09-28T15:45:02.080Z,12
2022-09-28T16:00:02.820Z,11.83
2022-09-28T16:15:02.869Z,11.78
2022-09-28T16:30:03.725Z,11.56
2022-09-28T16:45:00.850Z,11.44
2022-09-28T17:00:00.920Z,11.28
2022-09-28T17:15:04.181Z,11.17
2022-09-28T17:30:02.649Z,11.06
2022-09-28T17:45:04.458Z,11
2022-09-28T18:00:00.586Z,10.83
2022-09-28T18:15:03.599Z,10.67
2022-09-28T18:30:03.123Z,10.5
2022-09-28T18:45:04.218Z,10.39
2022-09-28T19:00:02.545Z,10.22
2022-09-28T19:15:00.889Z,10.06
2022-09-28T19:30:04.166Z,9.89
2022-09-28T19:45:02.333Z,9.72
2022-09-28T20:00:03.762Z,9.56
2022-09-28T20:15:05.577Z,9.44
2022-09-28T20:30:02.287Z,9.33
2022-09-28T20:45:02.936Z,9.39
2022-09-28T21:00:04.624Z,9.44
2022-09-28T21:15:06.220Z,9.5
2022-09-28T21:30:04.850Z,9.5
2022-09-28T21:45:04.378Z,9.44
2022-09-28T22:00:01.798Z,9.44
2022-09-28T22:15:04.100Z,9.44
2022-09-28T22:30:00.311Z,9.39
2022-09-28T22:45:00.764Z,9.39
2022-09-28T23:00:02.519Z,9.44
2022-09-28T23:15:05.105Z,9.5
2022-09-28T23:30:03.688Z,9.56
2022-09-28T23:45:00.654Z,9.56
